Time;durP1;ratioP1;P1;durP2;ratioP2;P2;SDS_P1;SDS_P2;PMS_P1;PMS_P2;Temp;Humidity;BMP_temperature;BMP_pressure;BME280_temperature;BME280_humidity;BME280_pressure;Samples;Min_cycle;Max_cycle;Signal;HPM_P1;HPM_P2
2023/01/19 00:01:53;;;;;;;13.93;5.10;;;;;;;18.08;50.84;99325.34;5111745;28;20165;-63
2023/01/19 00:04:19;;;;;;;10.23;4.63;;;;;;;18.11;50.91;99327.38;5107835;28;20180;-63
2023/01/19 00:06:44;;;;;;;13.10;5.27;;;;;;;18.09;50.79;99332.69;5093511;28;20198;-63
2023/01/19 00:09:10;;;;;;;12.67;4.80;;;;;;;18.08;50.97;99338.78;5091244;28;20170;-63
2023/01/19 00:11:35;;;;;;;11.43;5.10;;;;;;;18.07;50.99;99335.09;5083910;28;20187;-63
2023/01/19 00:14:01;;;;;;;9.70;5.10;;;;;;;18.07;51.10;99332.25;5084801;28;20177;-63
2023/01/19 00:16:26;;;;;;;11.70;4.80;;;;;;;18.15;50.88;99331.06;5111753;28;20228;-63
2023/01/19 00:18:52;;;;;;;9.50;4.67;;;;;;;18.08;51.22;99328.19;5104513;28;20174;-63
2023/01/19 00:21:17;;;;;;;10.50;5.03;;;;;;;18.13;50.91;99324.94;5091096;28;20170;-63
2023/01/19 00:23:46;;;;;;;11.10;4.70;;;;;;;18.12;51.09;99331.84;5090918;28;20159;-63
2023/01/19 00:26:12;;;;;;;9.97;5.00;;;;;;;18.09;51.18;99335.53;5090086;28;20549;-63
2023/01/19 00:28:37;;;;;;;10.47;5.20;;;;;;;18.03;51.12;99337.16;5092934;28;20489;-63
2023/01/19 00:31:03;;;;;;;10.63;4.80;;;;;;;18.02;51.50;99332.63;5091136;28;20428;-63
2023/01/19 00:33:28;;;;;;;9.83;5.00;;;;;;;18.06;51.52;99339.19;5091024;28;20232;-63
2023/01/19 00:35:54;;;;;;;11.73;5.27;;;;;;;18.06;51.31;99342.03;5091022;28;20174;-63
2023/01/19 00:38:19;;;;;;;8.43;4.70;;;;;;;18.04;51.37;99343.66;5098471;28;20512;-63
2023/01/19 00:40:45;;;;;;;10.63;4.80;;;;;;;18.08;51.10;99351.03;5090812;28;20554;-63
2023/01/19 00:43:10;;;;;;;11.07;4.40;;;;;;;18.09;51.52;99349.81;5090972;28;20170;-63
2023/01/19 00:45:35;;;;;;;8.60;4.53;;;;;;;18.08;51.33;99345.31;5090870;28;20174;-63
2023/01/19 00:48:01;;;;;;;9.23;4.40;;;;;;;18.09;51.32;99346.97;5093117;28;20238;-63
2023/01/19 00:50:27;;;;;;;9.23;4.90;;;;;;;18.09;51.53;99349.00;5090858;28;20182;-63
2023/01/19 00:52:53;;;;;;;9.63;4.50;;;;;;;18.04;51.46;99346.50;5093116;28;20601;-63
2023/01/19 00:55:19;;;;;;;8.77;4.57;;;;;;;18.04;51.79;99349.38;5090610;28;20498;-63
2023/01/19 00:57:44;;;;;;;9.73;5.03;;;;;;;18.09;51.62;99352.66;5091042;28;20416;-63
2023/01/19 01:00:11;;;;;;;7.20;4.63;;;;;;;18.06;51.84;99350.59;5090562;28;20221;-63
2023/01/19 01:02:38;;;;;;;8.87;4.50;;;;;;;18.08;51.55;99347.34;5093324;28;20191;-63
2023/01/19 01:05:04;;;;;;;10.00;4.70;;;;;;;18.06;51.94;99353.47;5108518;28;20448;-63
2023/01/19 01:07:33;;;;;;;9.63;4.80;;;;;;;18.03;51.81;99353.44;5090744;28;20471;-63
2023/01/19 01:09:58;;;;;;;18.10;5.00;;;;;;;18.03;51.87;99365.72;5090521;28;20470;-63
2023/01/19 01:12:23;;;;;;;10.70;4.70;;;;;;;18.09;51.83;99366.97;5108738;28;20766;-63
2023/01/19 01:14:49;;;;;;;5.53;4.07;;;;;;;18.10;51.91;99364.91;5111088;28;20223;-63
2023/01/19 01:17:14;;;;;;;9.13;5.30;;;;;;;18.01;51.73;99362.41;5095018;28;20195;-63
2023/01/19 01:19:40;;;;;;;9.77;5.03;;;;;;;18.02;52.12;99366.91;5090905;28;20163;-63
2023/01/19 01:22:06;;;;;;;7.13;3.93;;;;;;;18.01;52.02;99361.63;5090621;28;20170;-63
2023/01/19 01:24:32;;;;;;;7.00;3.77;;;;;;;18.05;52.14;99360.41;5072003;28;20154;-63
2023/01/19 01:26:57;;;;;;;7.87;4.40;;;;;;;18.04;51.90;99369.38;5093001;28;21019;-63
2023/01/19 01:29:22;;;;;;;7.00;4.17;;;;;;;18.04;52.37;99369.38;5090348;28;20158;-63
2023/01/19 01:31:48;;;;;;;8.27;4.10;;;;;;;18.03;52.19;99371.41;5090659;28;20580;-63
2023/01/19 01:34:13;;;;;;;8.30;3.93;;;;;;;17.99;52.02;99369.75;5092441;28;20629;-63
2023/01/19 01:36:39;;;;;;;6.67;4.20;;;;;;;18.01;52.33;99373.84;5092763;28;20174;-63
2023/01/19 01:39:04;;;;;;;9.27;4.70;;;;;;;17.96;52.34;99377.06;5093899;28;20178;-63
2023/01/19 01:41:30;;;;;;;6.07;3.80;;;;;;;18.01;52.44;99370.97;5094201;28;20163;-63
2023/01/19 01:44:00;;;;;;;6.67;3.63;;;;;;;18.02;52.27;99374.66;5096163;28;20249;-63
2023/01/19 01:46:26;;;;;;;8.27;4.60;;;;;;;17.98;52.11;99373.81;5093770;28;20285;-63
2023/01/19 01:49:14;;;;;;;8.10;3.97;;;;;;;18.02;52.19;99374.66;5095648;28;20471;-63
2023/01/19 01:51:42;;;;;;;9.37;3.80;;;;;;;17.97;52.57;99367.28;5093911;28;20485;-63
2023/01/19 01:54:15;;;;;;;9.37;3.80;;;;;;;17.98;52.41;99380.38;5093147;28;20438;-63
2023/01/19 01:56:46;;;;;;;7.40;4.20;;;;;;;17.95;52.77;99369.72;5094972;28;20435;-63
2023/01/19 01:59:24;;;;;;;8.43;4.00;;;;;;;17.99;52.21;99372.59;5075554;28;20486;-63
2023/01/19 02:04:35;;;;;;;10.93;4.70;;;;;;;17.96;52.63;99371.38;5094129;28;20886;-63
2023/01/19 02:15:17;;;;;;;5.87;3.50;;;;;;;17.94;52.55;99388.09;5110903;28;20479;-63
2023/01/19 02:17:42;;;;;;;7.67;4.23;;;;;;;17.98;52.53;99383.22;5113896;28;20407;-63
2023/01/19 02:20:09;;;;;;;5.37;3.50;;;;;;;17.98;52.61;99380.38;5091335;28;20436;-63
2023/01/19 02:22:37;;;;;;;8.10;3.80;;;;;;;17.97;52.70;99375.84;5079050;28;20178;-63
2023/01/19 02:25:03;;;;;;;8.23;3.97;;;;;;;17.93;52.70;99377.88;5091251;28;20498;-63
2023/01/19 02:27:29;;;;;;;7.80;4.17;;;;;;;17.95;52.89;99380.31;5113675;28;20455;-63
2023/01/19 02:29:54;;;;;;;9.37;4.33;;;;;;;17.95;52.67;99372.59;5113575;28;20245;-62
2023/01/19 02:32:20;;;;;;;6.30;3.80;;;;;;;17.92;52.83;99372.56;5087620;28;20189;-63
2023/01/19 02:34:45;;;;;;;7.13;3.70;;;;;;;17.93;52.68;99375.03;5113362;28;20238;-63
2023/01/19 02:37:11;;;;;;;6.63;3.90;;;;;;;17.92;52.82;99372.56;5076862;28;20228;-63
2023/01/19 02:39:45;;;;;;;5.60;3.60;;;;;;;17.89;52.88;99384.78;5074417;28;20166;-62
2023/01/19 02:42:25;;;;;;;8.30;4.00;;;;;;;17.88;52.90;99378.28;5077759;28;20411;-63
2023/01/19 02:44:51;;;;;;;5.57;3.60;;;;;;;17.94;52.97;99382.38;5096259;28;20955;-63
2023/01/19 02:47:17;;;;;;;6.87;3.87;;;;;;;17.93;52.81;99374.19;5089110;28;20470;-63
2023/01/19 02:49:42;;;;;;;5.63;3.90;;;;;;;17.90;53.29;99377.88;5112474;28;20209;-63
2023/01/19 02:52:14;;;;;;;6.20;3.90;;;;;;;17.90;52.81;99381.53;5106298;28;20781;-63
2023/01/19 02:54:52;;;;;;;7.83;3.67;;;;;;;17.89;52.83;99371.34;5074024;28;20236;-63
2023/01/19 02:57:34;;;;;;;6.20;3.63;;;;;;;17.89;52.57;99381.94;5092463;28;20978;-63
2023/01/19 03:00:24;;;;;;;7.87;3.73;;;;;;;17.90;52.56;99380.72;5112378;28;20434;-63
2023/01/19 03:03:14;;;;;;;8.83;3.53;;;;;;;17.87;52.64;99373.78;5111747;28;20412;-63
2023/01/19 03:06:16;;;;;;;5.47;3.23;;;;;;;17.93;53.05;99366.47;5094821;28;20551;-63
2023/01/19 03:08:43;;;;;;;5.37;3.17;;;;;;;17.92;52.76;99370.53;5092467;28;20506;-63
2023/01/19 03:11:11;;;;;;;6.53;3.40;;;;;;;17.89;52.90;99362.75;5105290;28;20897;-63
2023/01/19 03:13:51;;;;;;;5.57;3.37;;;;;;;17.89;52.96;99373.34;5077344;28;20430;-63
2023/01/19 03:16:23;;;;;;;7.13;3.70;;;;;;;17.89;52.90;99365.63;5073923;28;20439;-63
2023/01/19 03:18:54;;;;;;;6.33;3.17;;;;;;;17.90;52.60;99372.16;5112541;28;20773;-63
2023/01/19 03:21:21;;;;;;;4.80;3.17;;;;;;;17.87;53.14;99376.63;5094797;28;20396;-63
2023/01/19 03:23:46;;;;;;;5.73;3.30;;;;;;;17.89;52.87;99368.47;5077329;28;20411;-63
2023/01/19 03:26:16;;;;;;;5.73;3.50;;;;;;;17.84;53.10;99371.72;5107580;28;20528;-63
2023/01/19 03:28:42;;;;;;;5.13;3.40;;;;;;;17.87;52.98;99378.66;5112249;28;20567;-63
2023/01/19 03:31:19;;;;;;;9.07;4.00;;;;;;;17.85;52.99;99373.34;5093999;28;20446;-62
2023/01/19 03:33:50;;;;;;;6.27;3.47;;;;;;;17.86;53.04;99377.81;5092383;28;20177;-63
2023/01/19 03:36:19;;;;;;;6.70;3.93;;;;;;;17.83;52.89;99378.66;5065492;28;20427;-63
2023/01/19 03:38:44;;;;;;;5.57;3.40;;;;;;;17.87;53.12;99379.50;5073734;28;20393;-63
2023/01/19 03:41:12;;;;;;;6.77;3.83;;;;;;;17.87;52.63;99370.94;5086384;28;20442;-63
2023/01/19 03:43:37;;;;;;;7.23;3.40;;;;;;;17.90;52.83;99378.69;5094015;28;20269;-62
2023/01/19 03:46:03;;;;;;;6.70;3.50;;;;;;;17.83;52.88;99384.34;5088979;28;20464;-63
2023/01/19 03:48:29;;;;;;;5.90;3.00;;;;;;;17.80;52.80;99388.00;5093825;28;20221;-63
2023/01/19 03:50:54;;;;;;;4.67;3.17;;;;;;;17.83;53.28;99400.66;5092899;28;20189;-63
2023/01/19 03:53:21;;;;;;;6.10;3.40;;;;;;;17.83;53.20;99390.06;5073507;28;20189;-63
2023/01/19 03:55:47;;;;;;;5.40;3.40;;;;;;;17.84;52.97;99388.00;5106133;28;20569;-63
2023/01/19 03:58:13;;;;;;;5.20;3.33;;;;;;;17.86;52.94;99383.53;5093189;28;20789;-63
2023/01/19 04:00:38;;;;;;;5.40;2.90;;;;;;;17.81;53.20;99386.78;5107661;28;20435;-63
2023/01/19 04:03:04;;;;;;;6.17;3.13;;;;;;;17.87;53.12;99390.09;5053213;28;20167;-63
2023/01/19 04:05:29;;;;;;;4.47;3.10;;;;;;;17.84;53.53;99388.00;5074465;28;20597;-63
2023/01/19 04:07:55;;;;;;;5.97;3.33;;;;;;;17.84;53.18;99388.00;5091537;28;20460;-63
2023/01/19 04:10:20;;;;;;;9.70;3.60;;;;;;;17.86;52.87;99392.09;5093014;28;20227;-63
2023/01/19 04:12:46;;;;;;;5.53;2.90;;;;;;;17.85;52.99;99387.63;5091371;28;20155;-63
2023/01/19 04:15:12;;;;;;;5.13;3.17;;;;;;;17.89;52.92;99396.19;5072083;28;20612;-63
2023/01/19 04:17:38;;;;;;;6.70;3.17;;;;;;;17.85;53.26;99401.91;5093740;28;20171;-62
2023/01/19 04:20:04;;;;;;;6.53;3.23;;;;;;;17.86;52.95;99400.66;5091124;28;20722;-63
2023/01/19 04:22:29;;;;;;;6.50;3.27;;;;;;;17.87;53.12;99393.78;5097942;28;20439;-63
2023/01/19 04:24:54;;;;;;;4.10;2.77;;;;;;;17.84;53.02;99400.25;5111337;28;20465;-63
2023/01/19 04:27:20;;;;;;;4.70;2.80;;;;;;;17.83;53.16;99398.63;5109719;28;20254;-63
2023/01/19 04:29:45;;;;;;;5.20;3.00;;;;;;;17.83;53.12;99404.34;5109067;28;20260;-63
2023/01/19 04:32:12;;;;;;;6.00;2.90;;;;;;;17.83;53.17;99401.47;5101905;28;20618;-63
2023/01/19 04:34:37;;;;;;;7.43;3.00;;;;;;;17.85;53.25;99403.94;5098974;28;20181;-63
2023/01/19 04:37:03;;;;;;;4.90;2.60;;;;;;;17.83;53.09;99401.47;5095113;28;20429;-63
2023/01/19 04:39:29;;;;;;;4.33;2.87;;;;;;;17.82;53.31;99411.28;5091058;28;20186;-63
2023/01/19 04:41:56;;;;;;;5.37;3.20;;;;;;;17.82;52.90;99408.41;5091863;28;20185;-63
2023/01/19 04:44:21;;;;;;;5.73;3.40;;;;;;;17.80;53.39;99405.13;5111171;28;20165;-63
2023/01/19 04:46:47;;;;;;;6.40;3.40;;;;;;;17.80;53.02;99402.28;5091767;28;20461;-63
2023/01/19 04:49:13;;;;;;;4.03;2.90;;;;;;;17.81;53.17;99408.81;5104928;28;20547;-63
2023/01/19 04:51:38;;;;;;;6.00;2.97;;;;;;;17.83;53.22;99412.06;5103617;28;20605;-63
2023/01/19 04:54:04;;;;;;;5.00;2.83;;;;;;;17.85;52.91;99410.47;5091719;28;20408;-63
2023/01/19 04:56:29;;;;;;;4.97;3.10;;;;;;;17.80;53.23;99413.69;5092337;28;20260;-63
2023/01/19 04:58:55;;;;;;;5.47;3.50;;;;;;;17.82;53.33;99414.13;5090587;28;20634;-63
2023/01/19 05:01:20;;;;;;;5.37;3.10;;;;;;;17.81;53.19;99420.22;5096885;28;20243;-63
2023/01/19 05:03:45;;;;;;;5.83;3.33;;;;;;;17.83;53.19;99418.63;5085080;28;20591;-63
2023/01/19 05:06:11;;;;;;;4.40;2.90;;;;;;;17.83;53.31;99418.63;5078547;28;20641;-63
2023/01/19 05:08:37;;;;;;;5.43;2.77;;;;;;;17.84;52.97;99422.28;5108012;28;20181;-63
2023/01/19 05:11:03;;;;;;;6.07;3.07;;;;;;;17.85;52.99;99426.78;5112594;28;20184;-63
2023/01/19 05:13:28;;;;;;;5.97;2.80;;;;;;;17.81;53.34;99431.66;5115159;28;20547;-64
2023/01/19 05:15:54;;;;;;;5.70;2.80;;;;;;;17.84;53.21;99431.66;5110843;28;20644;-63
2023/01/19 05:18:19;;;;;;;8.93;3.27;;;;;;;17.82;53.13;99433.28;5114918;28;20158;-63
2023/01/19 05:20:45;;;;;;;4.30;2.70;;;;;;;17.87;53.09;99428.03;5097672;28;20189;-63
2023/01/19 05:23:10;;;;;;;4.50;2.80;;;;;;;17.87;52.98;99421.50;5094277;28;20182;-63
2023/01/19 05:25:35;;;;;;;3.57;2.70;;;;;;;17.84;53.02;99431.66;5108722;28;20193;-63
2023/01/19 05:28:02;;;;;;;4.33;2.47;;;;;;;17.81;53.42;99425.94;5114776;28;20201;-63
2023/01/19 05:30:27;;;;;;;4.67;2.80;;;;;;;17.86;53.07;99429.22;5114912;28;20533;-63
2023/01/19 05:32:52;;;;;;;4.33;2.53;;;;;;;17.85;52.93;99426.78;5112930;28;20407;-63
2023/01/19 05:35:18;;;;;;;3.17;2.30;;;;;;;17.85;53.25;99427.59;5110562;28;20182;-63
2023/01/19 05:37:43;;;;;;;4.67;2.87;;;;;;;17.85;52.78;99421.06;5094067;28;20177;-63
2023/01/19 05:40:09;;;;;;;4.10;2.60;;;;;;;17.84;53.04;99425.97;5095662;28;20193;-63
2023/01/19 05:42:35;;;;;;;5.27;3.03;;;;;;;17.85;52.77;99426.78;5075630;28;20170;-63
2023/01/19 05:45:00;;;;;;;4.27;2.80;;;;;;;17.84;52.91;99425.97;5077434;28;20922;-63
2023/01/19 05:47:28;;;;;;;4.97;2.93;;;;;;;17.84;52.95;99416.56;5093339;28;20599;-63
2023/01/19 05:49:54;;;;;;;4.80;2.40;;;;;;;17.83;53.17;99430.03;5093574;28;20232;-63
2023/01/19 05:52:19;;;;;;;4.00;2.60;;;;;;;17.84;53.28;99434.53;5093343;28;20405;-63
2023/01/19 05:54:44;;;;;;;7.67;2.40;;;;;;;17.85;52.77;99423.94;5095758;28;20186;-63
2023/01/19 05:57:10;;;;;;;5.27;2.80;;;;;;;17.77;53.15;99434.50;5093658;28;20178;-63
2023/01/19 05:59:36;;;;;;;4.03;2.60;;;;;;;17.82;53.04;99439.81;5094838;28;20174;-63
2023/01/19 06:02:01;;;;;;;4.33;2.30;;;;;;;17.81;53.11;99435.31;5093708;28;20187;-63
2023/01/19 06:04:27;;;;;;;5.03;2.80;;;;;;;17.83;52.81;99441.47;5083556;28;20170;-63
2023/01/19 06:06:52;;;;;;;3.93;2.50;;;;;;;17.85;53.15;99441.06;5107741;28;20217;-63
2023/01/19 06:09:18;;;;;;;3.40;2.30;;;;;;;17.83;53.20;99443.47;5112888;28;20166;-63
2023/01/19 06:11:44;;;;;;;3.97;2.23;;;;;;;17.79;53.27;99448.34;5090141;28;20224;-63
2023/01/19 06:14:10;;;;;;;4.40;2.70;;;;;;;17.82;53.27;99445.53;5083708;28;20174;-63
2023/01/19 06:16:35;;;;;;;5.60;3.00;;;;;;;17.87;53.02;99450.88;5093329;28;20446;-63
2023/01/19 06:19:01;;;;;;;3.70;2.27;;;;;;;17.85;53.19;99450.44;5093614;28;20159;-63
2023/01/19 06:21:26;;;;;;;3.27;2.20;;;;;;;17.82;52.89;99456.97;5078980;28;20185;-63
2023/01/19 06:23:51;;;;;;;3.67;2.73;;;;;;;17.88;52.96;99455.38;5091287;28;20190;-63
2023/01/19 06:26:17;;;;;;;3.43;2.33;;;;;;;17.88;53.08;99460.25;5074753;28;20190;-63
2023/01/19 06:28:42;;;;;;;3.37;2.20;;;;;;;17.83;53.22;99463.47;5095499;28;20178;-63
2023/01/19 06:31:08;;;;;;;3.87;2.23;;;;;;;17.79;52.98;99463.44;5093141;28;20530;-63
2023/01/19 06:33:33;;;;;;;5.13;2.67;;;;;;;17.88;52.95;99466.78;5095689;28;20186;-63
2023/01/19 06:35:59;;;;;;;5.07;2.40;;;;;;;17.83;53.07;99463.47;5092341;28;20179;-63
2023/01/19 06:38:24;;;;;;;4.30;2.50;;;;;;;17.86;52.99;99462.69;5092873;28;20560;-63
2023/01/19 06:41:01;;;;;;;3.50;2.53;;;;;;;17.90;52.75;99470.06;5092881;28;20170;-63
2023/01/19 06:43:27;;;;;;;3.93;2.67;;;;;;;17.90;52.93;99463.53;5088207;28;20177;-63
2023/01/19 06:45:52;;;;;;;4.03;2.40;;;;;;;17.92;53.24;99472.50;5113298;28;20427;-63
2023/01/19 06:48:18;;;;;;;4.77;2.30;;;;;;;17.89;52.81;99471.28;5107807;28;20704;-63
2023/01/19 06:50:44;;;;;;;3.33;2.03;;;;;;;17.87;52.88;99482.28;5091890;28;20529;-63
2023/01/19 06:53:09;;;;;;;3.70;2.33;;;;;;;17.83;53.45;99474.88;5095886;28;20186;-63
2023/01/19 06:55:35;;;;;;;4.37;2.50;;;;;;;17.86;53.08;99474.91;5092704;28;20420;-63
2023/01/19 06:58:00;;;;;;;3.80;2.43;;;;;;;17.88;52.97;99478.22;5110356;28;20174;-63
2023/01/19 07:00:26;;;;;;;4.43;2.33;;;;;;;17.85;53.07;99481.84;5109512;28;20634;-63
2023/01/19 07:02:51;;;;;;;4.83;2.87;;;;;;;17.87;52.82;99478.59;5091933;28;20170;-64
2023/01/19 07:05:17;;;;;;;3.30;2.67;;;;;;;17.84;53.25;99483.06;5085317;28;20194;-63
2023/01/19 07:07:43;;;;;;;3.20;2.27;;;;;;;17.84;53.17;99485.91;5075949;28;20335;-63
2023/01/19 07:10:14;;;;;;;3.60;2.43;;;;;;;17.85;53.05;99478.97;5092713;28;20234;-63
2023/01/19 07:12:40;;;;;;;4.30;2.40;;;;;;;17.88;52.80;99483.91;5094566;28;20428;-63
2023/01/19 07:15:08;;;;;;;3.47;2.50;;;;;;;17.89;53.00;99488.41;5092379;28;21047;-63
2023/01/19 07:17:33;;;;;;;5.10;2.37;;;;;;;17.90;53.13;99475.75;5071673;28;20265;-63
2023/01/19 07:19:59;;;;;;;3.50;2.00;;;;;;;17.90;52.72;99487.19;5112547;28;20925;-63
2023/01/19 07:22:24;;;;;;;3.00;1.90;;;;;;;17.86;52.85;99486.34;5108273;28;20192;-63
2023/01/19 07:24:50;;;;;;;3.27;2.10;;;;;;;17.84;53.38;99490.78;5112683;28;20169;-63
2023/01/19 07:27:15;;;;;;;3.57;2.20;;;;;;;17.85;53.20;99489.59;5107667;28;20671;-63
2023/01/19 07:29:41;;;;;;;5.63;2.90;;;;;;;17.89;53.06;99491.25;5112596;28;20177;-63
2023/01/19 07:32:06;;;;;;;3.60;2.27;;;;;;;17.91;52.87;99494.53;5109679;28;20173;-63
2023/01/19 07:34:32;;;;;;;3.13;2.07;;;;;;;17.87;52.41;99490.84;5087515;28;20666;-63
2023/01/19 07:36:57;;;;;;;3.33;2.50;;;;;;;17.90;53.21;99503.50;5094906;28;20186;-63
2023/01/19 07:39:23;;;;;;;5.13;2.30;;;;;;;17.87;52.97;99510.00;5098355;28;20201;-63
2023/01/19 07:41:48;;;;;;;2.90;2.00;;;;;;;17.89;52.97;99508.38;5111989;28;20169;-63
2023/01/19 07:44:14;;;;;;;3.40;1.93;;;;;;;17.91;52.80;99510.84;5092377;28;20174;-63
2023/01/19 07:46:40;;;;;;;4.00;2.20;;;;;;;17.85;53.22;99513.25;5073034;28;20210;-63
2023/01/19 07:49:05;;;;;;;4.10;2.73;;;;;;;17.85;53.20;99513.25;5071518;28;20214;-63
2023/01/19 07:51:32;;;;;;;3.73;2.20;;;;;;;17.89;52.97;99519.81;5091708;28;20417;-63
2023/01/19 07:53:57;;;;;;;3.03;2.20;;;;;;;17.92;53.28;99512.50;5092352;28;20632;-63
2023/01/19 07:56:23;;;;;;;3.53;2.00;;;;;;;17.91;52.96;99517.38;5111832;28;20412;-64
2023/01/19 07:58:51;;;;;;;4.00;2.40;;;;;;;17.90;52.93;99521.44;5089582;28;20197;-63
2023/01/19 08:01:16;;;;;;;3.93;2.47;;;;;;;17.92;52.93;99518.19;5066263;28;20591;-63
2023/01/19 08:03:42;;;;;;;5.23;3.00;;;;;;;17.93;52.86;99514.97;5060896;28;20409;-63
2023/01/19 08:06:12;;;;;;;4.50;2.33;;;;;;;17.89;53.24;99522.66;5089921;28;20663;-63
2023/01/19 08:08:38;;;;;;;3.33;2.23;;;;;;;17.85;52.80;99523.88;5057306;28;20262;-63
2023/01/19 08:11:03;;;;;;;4.50;2.30;;;;;;;17.89;52.93;99530.41;5107598;28;20423;-63
2023/01/19 08:13:29;;;;;;;4.30;2.60;;;;;;;17.92;52.79;99533.31;5108459;28;20200;-63
2023/01/19 08:15:54;;;;;;;2.83;1.70;;;;;;;17.88;52.92;99532.47;5111865;28;20184;-63
2023/01/19 08:18:20;;;;;;;3.07;1.90;;;;;;;17.89;52.92;99533.25;5111353;28;20162;-63
2023/01/19 08:20:45;;;;;;;3.23;2.00;;;;;;;17.86;52.77;99537.72;5090660;28;20179;-63
2023/01/19 08:23:11;;;;;;;4.07;2.37;;;;;;;17.91;52.84;99540.22;5091441;28;20633;-63
2023/01/19 08:25:38;;;;;;;3.50;2.10;;;;;;;17.97;52.84;99546.38;5092478;28;20178;-63
2023/01/19 08:28:04;;;;;;;4.57;2.77;;;;;;;17.91;52.90;99543.06;5090434;28;20210;-63
2023/01/19 08:30:30;;;;;;;3.30;1.93;;;;;;;17.87;53.15;99550.81;5078373;28;20843;-63
2023/01/19 08:33:06;;;;;;;3.57;2.20;;;;;;;17.95;52.77;99551.66;5093308;28;20415;-63
2023/01/19 08:35:36;;;;;;;3.67;2.03;;;;;;;17.97;52.69;99549.25;5108335;28;20529;-63
2023/01/19 08:38:03;;;;;;;3.23;1.80;;;;;;;17.94;52.83;99556.56;5072592;28;20804;-63
2023/01/19 08:40:29;;;;;;;3.40;2.13;;;;;;;17.91;52.70;99557.34;5101253;28;20533;-63
2023/01/19 08:43:00;;;;;;;3.70;2.30;;;;;;;17.94;52.61;99559.44;5072355;28;20421;-63
2023/01/19 08:45:27;;;;;;;4.10;2.17;;;;;;;17.93;52.61;99559.81;5071519;28;20402;-63
2023/01/19 08:47:55;;;;;;;3.07;2.13;;;;;;;17.87;53.18;99556.53;5056646;28;20542;-63
2023/01/19 08:50:21;;;;;;;2.90;1.87;;;;;;;17.91;52.80;99557.34;5083046;28;20894;-63
2023/01/19 08:52:46;;;;;;;2.93;1.80;;;;;;;17.93;52.91;99557.78;5095373;28;20847;-63
2023/01/19 08:55:12;;;;;;;3.10;2.20;;;;;;;17.94;52.74;99562.28;5094736;28;20413;-63
2023/01/19 08:57:37;;;;;;;3.40;1.97;;;;;;;17.97;52.74;99560.66;5095033;28;20185;-63
2023/01/19 09:00:03;;;;;;;3.40;2.17;;;;;;;17.96;52.78;99556.19;5100346;28;20193;-63
2023/01/19 09:02:29;;;;;;;6.50;2.50;;;;;;;17.97;52.82;99564.31;5112831;28;20190;-63
2023/01/19 09:04:54;;;;;;;4.03;2.30;;;;;;;18.01;52.82;99564.38;5079344;28;20202;-63
2023/01/19 09:07:20;;;;;;;3.33;1.80;;;;;;;17.95;52.55;99569.63;5094811;28;20213;-63
2023/01/19 09:09:45;;;;;;;3.53;2.00;;;;;;;17.95;52.78;99572.47;5108701;28;20513;-63
2023/01/19 09:12:10;;;;;;;2.57;1.70;;;;;;;17.95;53.09;99569.63;5113765;28;20624;-63
2023/01/19 09:14:36;;;;;;;4.63;2.00;;;;;;;17.95;52.69;99557.38;5097169;28;20186;-64
2023/01/19 09:17:01;;;;;;;3.73;1.70;;;;;;;17.92;52.92;99563.91;5076399;28;20170;-63
2023/01/19 09:19:27;;;;;;;3.17;1.70;;;;;;;17.90;52.96;99563.47;5094525;28;20178;-63
2023/01/19 09:21:53;;;;;;;3.17;1.63;;;;;;;17.93;52.87;99560.66;5096715;28;20178;-63
2023/01/19 09:24:19;;;;;;;3.40;1.80;;;;;;;17.93;53.07;99559.81;5094629;28;20186;-63
2023/01/19 09:26:44;;;;;;;4.80;2.10;;;;;;;17.90;52.95;99547.16;5094364;28;20463;-63
2023/01/19 09:29:09;;;;;;;3.10;1.80;;;;;;;17.93;52.67;99560.66;5094829;28;20182;-63
2023/01/19 09:31:35;;;;;;;2.87;1.63;;;;;;;17.97;52.73;99550.06;5113734;28;20516;-63
2023/01/19 09:34:01;;;;;;;3.57;1.80;;;;;;;17.89;52.66;99556.94;5096314;28;20528;-63
2023/01/19 09:36:26;;;;;;;3.17;2.17;;;;;;;17.91;53.08;99560.19;5080749;28;20938;-63
2023/01/19 09:38:52;;;;;;;2.53;1.50;;;;;;;17.91;52.90;99557.34;5076199;28;20178;-63
2023/01/19 09:41:21;;;;;;;3.30;1.97;;;;;;;17.95;52.98;99561.06;5100115;28;20181;-63
2023/01/19 09:43:58;;;;;;;3.63;2.07;;;;;;;17.96;52.93;99564.75;5079235;28;20559;-63
2023/01/19 09:46:37;;;;;;;2.80;2.07;;;;;;;17.92;52.88;99570.44;5063367;28;20463;-63
2023/01/19 09:49:09;;;;;;;4.20;2.20;;;;;;;17.89;53.18;99565.50;5075888;28;20467;-63
2023/01/19 09:51:37;;;;;;;3.03;1.73;;;;;;;17.92;52.93;99563.91;5062740;28;20445;-63
2023/01/19 09:54:02;;;;;;;3.27;1.97;;;;;;;17.91;53.31;99573.69;5059327;28;20430;-64
2023/01/19 09:56:28;;;;;;;4.37;2.47;;;;;;;17.89;52.73;99576.91;5093607;28;20405;-63
2023/01/19 09:58:54;;;;;;;3.43;1.90;;;;;;;17.94;53.17;99576.56;5093976;28;20270;-63
2023/01/19 10:01:37;;;;;;;3.27;2.20;;;;;;;17.90;52.93;99584.28;5077456;28;20253;-63
2023/01/19 10:04:27;;;;;;;2.87;1.67;;;;;;;17.93;53.16;99574.09;5093611;28;20216;-63
2023/01/19 10:07:20;;;;;;;3.60;2.23;;;;;;;17.89;52.87;99578.94;5098340;28;20791;-63
2023/01/19 10:09:48;;;;;;;3.20;1.83;;;;;;;17.90;53.05;99574.91;5093725;28;20880;-63
2023/01/19 10:12:19;;;;;;;3.73;2.00;;;;;;;17.97;52.75;99577.81;5075053;28;20440;-63
2023/01/19 10:14:48;;;;;;;4.30;1.83;;;;;;;18.00;52.66;99566.41;5061347;28;20432;-63
2023/01/19 10:17:33;;;;;;;2.63;1.50;;;;;;;18.02;52.38;99575.38;5113281;28;20404;-63
2023/01/19 10:19:58;;;;;;;2.70;1.70;;;;;;;17.95;52.74;99574.50;5074552;28;20464;-63
2023/01/19 10:22:24;;;;;;;3.60;2.37;;;;;;;18.00;52.74;99577.00;5056741;28;20433;-63
2023/01/19 10:24:58;;;;;;;3.00;1.70;;;;;;;18.03;52.91;99577.06;5108666;28;20512;-63
2023/01/19 10:27:30;;;;;;;3.10;1.90;;;;;;;17.92;52.89;99575.31;5078322;28;20463;-63
2023/01/19 10:29:56;;;;;;;5.07;1.80;;;;;;;17.98;52.75;99580.28;5077132;28;20421;-63
2023/01/19 10:32:34;;;;;;;3.30;1.93;;;;;;;18.00;52.96;99586.41;5094185;28;20509;-63
2023/01/19 10:35:00;;;;;;;3.07;1.97;;;;;;;17.99;52.47;99584.75;5096603;28;20506;-63
2023/01/19 10:37:31;;;;;;;5.00;2.47;;;;;;;18.05;52.63;99576.63;5075598;28;20431;-63
2023/01/19 10:40:02;;;;;;;2.87;1.77;;;;;;;18.06;52.64;99592.59;5067725;28;20178;-63
2023/01/19 10:42:28;;;;;;;3.60;1.90;;;;;;;18.04;52.85;99584.41;5075692;28;20799;-63
2023/01/19 10:44:54;;;;;;;3.23;1.67;;;;;;;18.02;52.46;99583.97;5090825;28;21091;-63
2023/01/19 10:47:21;;;;;;;2.93;1.77;;;;;;;17.98;52.81;99579.44;5092789;28;20471;-63
2023/01/19 10:49:47;;;;;;;4.60;1.60;;;;;;;18.00;52.77;99583.53;5090422;28;20783;-63
2023/01/19 10:52:30;;;;;;;2.70;1.77;;;;;;;18.00;53.18;99580.69;5091238;28;20421;-63
2023/01/19 10:54:56;;;;;;;2.63;1.80;;;;;;;17.96;52.76;99588.41;5074924;28;20571;-63
2023/01/19 10:57:29;;;;;;;3.57;2.17;;;;;;;18.00;52.74;99586.41;5073733;28;20490;-63
2023/01/19 10:59:55;;;;;;;2.67;1.73;;;;;;;18.00;52.60;99594.13;5079880;28;20193;-63
2023/01/19 11:02:27;;;;;;;3.47;1.93;;;;;;;18.01;52.74;99596.59;5092659;28;20420;-63
2023/01/19 11:04:55;;;;;;;3.07;2.00;;;;;;;18.03;52.83;99591.34;5077001;28;20226;-63
2023/01/19 11:07:28;;;;;;;2.57;1.60;;;;;;;17.98;52.73;99588.00;5076706;28;20546;-63
2023/01/19 11:10:27;;;;;;;3.03;2.00;;;;;;;17.95;52.95;99595.34;5073621;28;20902;-63
2023/01/19 11:13:11;;;;;;;2.57;1.70;;;;;;;17.98;52.57;99594.56;5103243;28;20508;-63
2023/01/19 11:16:03;;;;;;;2.87;1.83;;;;;;;18.04;52.96;99592.13;5092885;28;20501;-63
2023/01/19 11:18:30;;;;;;;4.10;1.90;;;;;;;18.01;52.89;99596.59;5102797;28;20976;-63
2023/01/19 11:21:05;;;;;;;3.03;1.60;;;;;;;18.06;52.94;99593.38;5092143;28;20415;-63
2023/01/19 11:23:40;;;;;;;2.63;1.70;;;;;;;18.05;52.84;99590.91;5058190;28;20435;-63
2023/01/19 11:26:06;;;;;;;3.90;1.83;;;;;;;18.05;52.63;99591.75;5092380;28;20435;-63
2023/01/19 11:28:39;;;;;;;3.20;1.87;;;;;;;18.07;52.50;99583.59;5093083;28;20987;-63
2023/01/19 11:31:14;;;;;;;3.30;2.00;;;;;;;18.02;52.73;99586.00;5091510;28;20178;-63
2023/01/19 11:33:50;;;;;;;2.70;1.60;;;;;;;18.00;52.91;99580.69;5110104;28;20440;-63
2023/01/19 11:36:16;;;;;;;3.20;1.90;;;;;;;17.97;52.93;99586.38;5102419;28;20465;-63
2023/01/19 11:38:43;;;;;;;2.47;1.53;;;;;;;18.04;52.64;99583.56;5091413;28;20874;-63
2023/01/19 11:41:22;;;;;;;3.37;1.80;;;;;;;18.01;52.78;99582.31;5075137;28;20479;-63
2023/01/19 11:44:13;;;;;;;2.83;1.70;;;;;;;18.05;52.74;99583.19;5112260;28;20407;-63
2023/01/19 11:46:39;;;;;;;2.80;1.90;;;;;;;18.00;52.80;99583.53;5100500;28;20503;-63
2023/01/19 11:49:07;;;;;;;2.93;1.57;;;;;;;17.99;52.74;99579.06;5076427;28;20548;-63